• Join FlightAware (Why Join?)
  • Login
  • US Flag 
11:26AM EDT


 

Airport Tracker/Info


-or-


 

Live Flight TrackerFlight Track Log ✈ AMX536 ✈ 14-Oct-2013 ✈ MMMD / MID - MMMX / MEX

Flight Track Log - Related Links

Times and Time Zones

All times are in EDT time to prevent confusion due to time zone crossing. See the AMX536 flight status page for this flight to view local times or setup timezone preferences in your user account.

Time Position Orientation Groundspeed Altitude Reporting Facility
EDT Latitude Longitude Course Direction KTS MPH feet Rate Location/Type
09:42AM 20.7753 -90.8581 262° West  Level Estimated
09:43AM 20.7601 -90.9671 262° West  Level Estimated
09:44AM 20.7450 -91.0761 262° West  Level Estimated
09:45AM 20.7297 -91.1850 262° West  Level Estimated
09:46AM 20.7144 -91.2940 261° West  Level Estimated
09:47AM 20.6990 -91.4029 261° West  Level Estimated
09:48AM 20.6835 -91.5117 261° West  Level Estimated
09:49AM 20.6680 -91.6206 261° West  Level Estimated
09:50AM 20.6524 -91.7295 261° West  Level Estimated
09:51AM 20.6367 -91.8383 261° West  Level Estimated
09:52AM 20.6210 -91.9471 261° West  Level Estimated
09:53AM 20.6052 -92.0559 261° West  Level Estimated
09:54AM 20.5893 -92.1646 261° West  Level Estimated
09:55AM 20.5734 -92.2733 261° West  Level Estimated
09:56AM 20.5574 -92.3820 261° West  Level Estimated
09:57AM 20.5413 -92.4907 261° West  Level Estimated
09:58AM 20.5252 -92.5994 261° West  Level Estimated
09:59AM 20.5090 -92.7080 261° West  Level Estimated
10:00AM 20.4927 -92.8167 261° West  Level Estimated
10:01AM 20.4764 -92.9252 261° West  Level Estimated
10:02AM 20.4600 -93.0338 261° West  Level Estimated
10:03AM 20.4435 -93.1424 261° West  Level Estimated
10:04AM 20.4270 -93.2509 261° West  Level Estimated
10:05AM 20.4103 -93.3594 261° West  Level Estimated
10:06AM 20.3937 -93.4679 261° West  Level Estimated
10:07AM 20.3769 -93.5763 261° West  Level Estimated
10:08AM 20.3601 -93.6848 261° West  Level Estimated
10:09AM 20.3432 -93.7932 261° West  Level Estimated
10:10AM 20.3263 -93.9015 261° West  Level Estimated
10:11AM 20.3093 -94.0099 261° West  Level Estimated
10:12AM 20.2922 -94.1182 260° West  Level Estimated
10:13AM 20.2750 -94.2265 260° West  Level Estimated
10:14AM 20.2578 -94.3348 260° West  Level Estimated
10:15AM 20.2405 -94.4431 260° West  Level Estimated
10:16AM 20.2232 -94.5513 260° West  Level Estimated
10:17AM 20.2058 -94.6596 260° West  Level Estimated
10:18AM 20.1883 -94.7678 260° West  Level Estimated
10:19AM 20.1708 -94.8759 260° West  Level Estimated
10:20AM 20.1532 -94.9841 260° West  Level Estimated
10:21AM 20.1355 -95.0922 260° West  Level Estimated
10:22AM 20.1177 -95.2003 260° West  Level Estimated
10:23AM 20.0999 -95.3083 260° West  Level Estimated
10:24AM 20.0821 -95.4164 260° West  Level Estimated
10:25AM 20.0641 -95.5244 260° West  Level Estimated
10:26AM 20.0461 -95.6324 260° West  Level Estimated
10:27AM 20.0280 -95.7404 260° West  Level Estimated
10:28AM 20.0099 -95.8483 260° West  Level Estimated
10:29AM 19.9917 -95.9562 260° West  Level Estimated
10:30AM 19.9734 -96.0641 260° West  Level Estimated
10:31AM 19.9551 -96.1720 260° West  Level Estimated
10:32AM 19.9367 -96.2798 260° West  Level Estimated
10:33AM 19.9182 -96.3877 260° West  Level Estimated
10:34AM 19.8997 -96.4955 260° West  Level Estimated
10:35AM 19.8811 -96.6032 260° West  Level Estimated
10:36AM 19.8625 -96.7110 260° West  Level Estimated
10:37AM 19.8437 -96.8187 260° West  Level Estimated
10:38AM 19.8249 -96.9264 260° West  Level Estimated
10:39AM 19.8061 -97.0340 259° West  Level Estimated
10:40AM 19.7872 -97.1417 259° West  Level Estimated
10:41AM 19.7682 -97.2493 259° West  Level Estimated
10:42AM 19.7492 -97.3569 259° West  Level Estimated
10:43AM 19.7301 -97.4645 259° West  Level Estimated
10:44AM 19.7109 -97.5720 259° West  Level Estimated
10:45AM 19.6917 -97.6795 259° West  Level Estimated
10:46AM 19.6723 -97.7870 259° West  Level Estimated
10:47AM 19.6530 -97.8945 259° West  Level Estimated
10:48AM 19.6336 -98.0019 259° West  Level Estimated
10:49AM 19.6141 -98.1093 259° West  Level Estimated
10:50AM 19.5945 -98.2167 259° West  Level Estimated
10:51AM 19.5749 -98.3241 259° West  Level Estimated
10:52AM 19.5552 -98.4314 259° West  Level Estimated
10:53AM 19.5355 -98.5387 259° West  Level Estimated
10:54AM 19.5156 -98.6460 259° West  Level Estimated
10:55AM 19.4958 -98.7532 259° West  Level Estimated
10:56AM 19.4758 -98.8605 259° West  Level Estimated
10:57AM 19.4559 -98.9677 259° West  Level Estimated
10:58AM 19.4363 -99.0721 259° West  Level Estimated
10:59AM 19.4363 -99.0721 43° Northeast  Level Estimated
11:00AM 19.4363 -99.0721 43° Northeast  Level Estimated
11:01AM 19.4363 -99.0721 43° Northeast  Level Estimated
11:02AM 19.4363 -99.0721 43° Northeast  Level Estimated
11:03AM 19.4363 -99.0721 43° Northeast  Level Estimated
11:04AM 19.4363 -99.0721 43° Northeast  Level Estimated
11:05AM 19.4363 -99.0721 43° Northeast  Level Estimated
11:06AM 19.4363 -99.0721 43° Northeast  Level Estimated
11:07AM 19.4363 -99.0721 43° Northeast  Level Estimated
11:08AM 19.4363 -99.0721 43° Northeast  Level Estimated
11:09AM 19.4363 -99.0721 43° Northeast  Level Estimated
11:10AM 19.4363 -99.0721 43° Northeast  Level Estimated
11:11AM 19.4363 -99.0721 43° Northeast  Level Estimated
11:12AM 19.4363 -99.0721 43° Northeast  Level Estimated
11:13AM 19.4363 -99.0721 43° Northeast  Level Estimated
11:14AM 19.4363 -99.0721 43° Northeast  Level Estimated